sensor_id;sensor_type;location;lat;lon;timestamp;temperature;humidity
17423;DHT22;8829;47.932;7.810;2022-08-07T00:01:55;16.90;99.90
17423;DHT22;8829;47.932;7.810;2022-08-07T00:04:22;16.80;99.90
17423;DHT22;8829;47.932;7.810;2022-08-07T00:06:50;16.70;99.90
17423;DHT22;8829;47.932;7.810;2022-08-07T00:09:17;16.70;99.90
17423;DHT22;8829;47.932;7.810;2022-08-07T00:11:44;16.60;99.90
17423;DHT22;8829;47.932;7.810;2022-08-07T00:14:10;16.70;99.90
17423;DHT22;8829;47.932;7.810;2022-08-07T00:16:37;16.50;99.90
17423;DHT22;8829;47.932;7.810;2022-08-07T00:19:04;16.40;99.90
17423;DHT22;8829;47.932;7.810;2022-08-07T00:21:31;16.40;99.90
17423;DHT22;8829;47.932;7.810;2022-08-07T00:23:59;16.30;99.90
17423;DHT22;8829;47.932;7.810;2022-08-07T00:26:26;16.00;99.90
17423;DHT22;8829;47.932;7.810;2022-08-07T00:28:53;15.90;99.90
17423;DHT22;8829;47.932;7.810;2022-08-07T00:31:20;15.90;99.90
17423;DHT22;8829;47.932;7.810;2022-08-07T00:33:47;15.90;99.90
17423;DHT22;8829;47.932;7.810;2022-08-07T00:36:13;16.00;99.90
17423;DHT22;8829;47.932;7.810;2022-08-07T00:38:40;15.90;99.90
17423;DHT22;8829;47.932;7.810;2022-08-07T00:41:08;15.90;99.90
17423;DHT22;8829;47.932;7.810;2022-08-07T00:43:36;15.90;99.90
17423;DHT22;8829;47.932;7.810;2022-08-07T00:46:03;15.90;99.90
17423;DHT22;8829;47.932;7.810;2022-08-07T00:48:30;15.70;99.90
17423;DHT22;8829;47.932;7.810;2022-08-07T00:50:57;15.70;99.90
17423;DHT22;8829;47.932;7.810;2022-08-07T00:53:24;15.60;99.90
17423;DHT22;8829;47.932;7.810;2022-08-07T00:55:51;15.60;99.90
17423;DHT22;8829;47.932;7.810;2022-08-07T00:58:20;15.60;99.90
17423;DHT22;8829;47.932;7.810;2022-08-07T01:00:47;15.60;99.90
17423;DHT22;8829;47.932;7.810;2022-08-07T01:03:15;15.60;99.90
17423;DHT22;8829;47.932;7.810;2022-08-07T01:05:43;15.60;99.90
17423;DHT22;8829;47.932;7.810;2022-08-07T01:08:11;15.70;99.90
17423;DHT22;8829;47.932;7.810;2022-08-07T01:10:38;15.70;99.90
17423;DHT22;8829;47.932;7.810;2022-08-07T01:13:07;15.60;99.90
17423;DHT22;8829;47.932;7.810;2022-08-07T01:15:36;15.70;99.90
17423;DHT22;8829;47.932;7.810;2022-08-07T01:18:03;15.60;99.90
17423;DHT22;8829;47.932;7.810;2022-08-07T01:20:33;15.40;99.90
17423;DHT22;8829;47.932;7.810;2022-08-07T01:23:03;15.40;99.90
17423;DHT22;8829;47.932;7.810;2022-08-07T01:25:31;15.40;99.90
17423;DHT22;8829;47.932;7.810;2022-08-07T01:27:57;15.40;99.90
17423;DHT22;8829;47.932;7.810;2022-08-07T01:30:25;15.30;99.90
17423;DHT22;8829;47.932;7.810;2022-08-07T01:32:53;15.40;99.90
17423;DHT22;8829;47.932;7.810;2022-08-07T01:35:20;15.60;99.90
17423;DHT22;8829;47.932;7.810;2022-08-07T01:37:47;15.60;99.90
17423;DHT22;8829;47.932;7.810;2022-08-07T01:40:19;15.50;99.90
17423;DHT22;8829;47.932;7.810;2022-08-07T01:42:46;15.60;99.90
17423;DHT22;8829;47.932;7.810;2022-08-07T01:45:13;15.70;99.90
17423;DHT22;8829;47.932;7.810;2022-08-07T01:47:41;15.90;99.90
17423;DHT22;8829;47.932;7.810;2022-08-07T01:50:08;15.80;99.90
17423;DHT22;8829;47.932;7.810;2022-08-07T01:52:36;15.80;99.90
17423;DHT22;8829;47.932;7.810;2022-08-07T01:55:04;15.90;99.90
17423;DHT22;8829;47.932;7.810;2022-08-07T01:57:36;15.90;99.90
17423;DHT22;8829;47.932;7.810;2022-08-07T02:00:07;15.70;99.90
17423;DHT22;8829;47.932;7.810;2022-08-07T02:02:39;15.50;99.90
17423;DHT22;8829;47.932;7.810;2022-08-07T02:05:11;15.50;99.90
17423;DHT22;8829;47.932;7.810;2022-08-07T02:07:41;15.30;99.90
17423;DHT22;8829;47.932;7.810;2022-08-07T02:10:10;15.20;99.90
17423;DHT22;8829;47.932;7.810;2022-08-07T02:12:41;15.10;99.90
17423;DHT22;8829;47.932;7.810;2022-08-07T02:15:09;15.00;99.90
17423;DHT22;8829;47.932;7.810;2022-08-07T02:17:38;14.40;99.90
17423;DHT22;8829;47.932;7.810;2022-08-07T02:20:08;14.80;99.90
17423;DHT22;8829;47.932;7.810;2022-08-07T02:22:36;14.80;99.90
17423;DHT22;8829;47.932;7.810;2022-08-07T02:25:05;14.70;99.90
17423;DHT22;8829;47.932;7.810;2022-08-07T02:27:33;14.90;99.90
17423;DHT22;8829;47.932;7.810;2022-08-07T02:30:02;15.00;99.90
17423;DHT22;8829;47.932;7.810;2022-08-07T02:32:30;15.20;99.90
17423;DHT22;8829;47.932;7.810;2022-08-07T02:35:01;15.30;99.90
17423;DHT22;8829;47.932;7.810;2022-08-07T02:37:30;15.50;99.90
17423;DHT22;8829;47.932;7.810;2022-08-07T02:39:58;15.50;99.90
17423;DHT22;8829;47.932;7.810;2022-08-07T02:42:26;15.40;99.90
17423;DHT22;8829;47.932;7.810;2022-08-07T02:44:55;15.10;99.90
17423;DHT22;8829;47.932;7.810;2022-08-07T02:47:23;15.00;99.90
17423;DHT22;8829;47.932;7.810;2022-08-07T02:49:50;15.10;99.90
17423;DHT22;8829;47.932;7.810;2022-08-07T02:52:22;15.10;99.90
17423;DHT22;8829;47.932;7.810;2022-08-07T02:54:50;15.20;99.90
17423;DHT22;8829;47.932;7.810;2022-08-07T02:57:18;15.20;99.90
17423;DHT22;8829;47.932;7.810;2022-08-07T02:59:47;15.20;99.90
17423;DHT22;8829;47.932;7.810;2022-08-07T03:02:15;15.00;99.90
17423;DHT22;8829;47.932;7.810;2022-08-07T03:04:44;14.80;99.90
17423;DHT22;8829;47.932;7.810;2022-08-07T03:07:12;14.90;99.90
17423;DHT22;8829;47.932;7.810;2022-08-07T03:09:40;14.90;99.90
17423;DHT22;8829;47.932;7.810;2022-08-07T03:12:08;14.90;99.90
17423;DHT22;8829;47.932;7.810;2022-08-07T03:14:36;14.80;99.90
17423;DHT22;8829;47.932;7.810;2022-08-07T03:17:04;14.80;99.90
17423;DHT22;8829;47.932;7.810;2022-08-07T03:19:33;14.70;99.90
17423;DHT22;8829;47.932;7.810;2022-08-07T03:22:02;14.70;99.90
17423;DHT22;8829;47.932;7.810;2022-08-07T03:24:30;14.80;99.90
17423;DHT22;8829;47.932;7.810;2022-08-07T03:27:00;14.90;99.90
17423;DHT22;8829;47.932;7.810;2022-08-07T03:29:31;14.90;99.90
17423;DHT22;8829;47.932;7.810;2022-08-07T03:32:00;14.60;99.90
17423;DHT22;8829;47.932;7.810;2022-08-07T03:34:30;14.50;99.90
17423;DHT22;8829;47.932;7.810;2022-08-07T03:36:59;14.40;99.90
17423;DHT22;8829;47.932;7.810;2022-08-07T03:39:31;14.20;99.90
17423;DHT22;8829;47.932;7.810;2022-08-07T03:41:59;14.20;99.90
17423;DHT22;8829;47.932;7.810;2022-08-07T03:44:27;14.20;99.90
17423;DHT22;8829;47.932;7.810;2022-08-07T03:46:55;14.00;99.90
17423;DHT22;8829;47.932;7.810;2022-08-07T03:49:22;13.90;99.90
17423;DHT22;8829;47.932;7.810;2022-08-07T03:51:49;13.80;99.90
17423;DHT22;8829;47.932;7.810;2022-08-07T03:54:17;13.70;99.90
17423;DHT22;8829;47.932;7.810;2022-08-07T03:56:45;13.60;99.90
17423;DHT22;8829;47.932;7.810;2022-08-07T03:59:12;13.50;99.90
17423;DHT22;8829;47.932;7.810;2022-08-07T04:01:41;13.50;99.90
17423;DHT22;8829;47.932;7.810;2022-08-07T04:04:08;13.50;99.90
17423;DHT22;8829;47.932;7.810;2022-08-07T04:06:35;13.40;99.90
17423;DHT22;8829;47.932;7.810;2022-08-07T04:09:05;13.50;99.90
17423;DHT22;8829;47.932;7.810;2022-08-07T04:11:33;13.50;99.90
17423;DHT22;8829;47.932;7.810;2022-08-07T04:14:01;13.30;99.90
17423;DHT22;8829;47.932;7.810;2022-08-07T04:16:29;13.30;99.90
17423;DHT22;8829;47.932;7.810;2022-08-07T04:18:55;13.50;99.90
17423;DHT22;8829;47.932;7.810;2022-08-07T04:21:22;13.70;99.90
17423;DHT22;8829;47.932;7.810;2022-08-07T04:23:50;13.60;99.90
17423;DHT22;8829;47.932;7.810;2022-08-07T04:26:18;13.60;99.90
17423;DHT22;8829;47.932;7.810;2022-08-07T04:28:44;13.60;99.90
17423;DHT22;8829;47.932;7.810;2022-08-07T04:31:13;13.60;99.90
17423;DHT22;8829;47.932;7.810;2022-08-07T04:33:40;13.70;99.90
17423;DHT22;8829;47.932;7.810;2022-08-07T04:36:07;13.80;99.90
17423;DHT22;8829;47.932;7.810;2022-08-07T04:38:35;13.70;99.90
17423;DHT22;8829;47.932;7.810;2022-08-07T04:41:02;13.80;99.90
17423;DHT22;8829;47.932;7.810;2022-08-07T04:43:32;14.00;99.90
17423;DHT22;8829;47.932;7.810;2022-08-07T04:46:04;14.30;99.90
17423;DHT22;8829;47.932;7.810;2022-08-07T04:48:40;14.40;99.90
17423;DHT22;8829;47.932;7.810;2022-08-07T04:51:15;14.60;99.90
17423;DHT22;8829;47.932;7.810;2022-08-07T04:53:50;14.70;99.90
17423;DHT22;8829;47.932;7.810;2022-08-07T04:56:25;14.80;99.90
17423;DHT22;8829;47.932;7.810;2022-08-07T04:58:59;14.60;99.90
17423;DHT22;8829;47.932;7.810;2022-08-07T05:01:36;14.30;99.90
17423;DHT22;8829;47.932;7.810;2022-08-07T05:04:10;14.40;99.90
17423;DHT22;8829;47.932;7.810;2022-08-07T05:06:44;14.50;99.90
17423;DHT22;8829;47.932;7.810;2022-08-07T05:09:21;14.70;99.90
17423;DHT22;8829;47.932;7.810;2022-08-07T05:11:52;14.50;99.90
17423;DHT22;8829;47.932;7.810;2022-08-07T05:14:24;14.40;99.90
17423;DHT22;8829;47.932;7.810;2022-08-07T05:16:56;14.40;99.90
17423;DHT22;8829;47.932;7.810;2022-08-07T05:19:28;14.40;99.90
17423;DHT22;8829;47.932;7.810;2022-08-07T05:21:59;14.60;99.90
17423;DHT22;8829;47.932;7.810;2022-08-07T05:24:28;14.80;99.90
17423;DHT22;8829;47.932;7.810;2022-08-07T05:26:57;14.90;99.90
17423;DHT22;8829;47.932;7.810;2022-08-07T05:29:27;14.90;99.90
17423;DHT22;8829;47.932;7.810;2022-08-07T05:31:55;15.00;99.90
17423;DHT22;8829;47.932;7.810;2022-08-07T05:34:22;15.10;99.90
17423;DHT22;8829;47.932;7.810;2022-08-07T05:36:52;15.00;99.90
17423;DHT22;8829;47.932;7.810;2022-08-07T05:39:22;14.70;99.90
17423;DHT22;8829;47.932;7.810;2022-08-07T05:41:50;14.70;99.90
17423;DHT22;8829;47.932;7.810;2022-08-07T05:44:18;15.10;99.90
17423;DHT22;8829;47.932;7.810;2022-08-07T05:46:46;15.60;99.90
17423;DHT22;8829;47.932;7.810;2022-08-07T05:49:14;16.10;99.90
17423;DHT22;8829;47.932;7.810;2022-08-07T05:51:41;16.50;99.90
17423;DHT22;8829;47.932;7.810;2022-08-07T05:54:10;16.90;99.90
17423;DHT22;8829;47.932;7.810;2022-08-07T05:56:38;17.10;99.90
17423;DHT22;8829;47.932;7.810;2022-08-07T05:59:08;17.80;99.90
17423;DHT22;8829;47.932;7.810;2022-08-07T06:01:39;18.30;99.90
17423;DHT22;8829;47.932;7.810;2022-08-07T06:04:08;18.50;99.90
17423;DHT22;8829;47.932;7.810;2022-08-07T06:06:35;18.30;99.90
17423;DHT22;8829;47.932;7.810;2022-08-07T06:09:02;18.40;99.90
17423;DHT22;8829;47.932;7.810;2022-08-07T06:11:32;18.80;99.90
17423;DHT22;8829;47.932;7.810;2022-08-07T06:13:59;19.00;99.90
17423;DHT22;8829;47.932;7.810;2022-08-07T06:16:30;19.50;99.90
17423;DHT22;8829;47.932;7.810;2022-08-07T06:18:58;20.00;99.90
17423;DHT22;8829;47.932;7.810;2022-08-07T06:21:26;20.30;99.90
17423;DHT22;8829;47.932;7.810;2022-08-07T06:23:53;20.50;99.90
17423;DHT22;8829;47.932;7.810;2022-08-07T06:26:20;20.70;99.80
17423;DHT22;8829;47.932;7.810;2022-08-07T06:28:50;20.70;99.90
17423;DHT22;8829;47.932;7.810;2022-08-07T06:31:17;21.00;99.00
17423;DHT22;8829;47.932;7.810;2022-08-07T06:33:44;21.10;98.70
17423;DHT22;8829;47.932;7.810;2022-08-07T06:36:12;21.00;98.70
17423;DHT22;8829;47.932;7.810;2022-08-07T06:38:39;20.50;98.10
17423;DHT22;8829;47.932;7.810;2022-08-07T06:41:10;20.00;98.40
17423;DHT22;8829;47.932;7.810;2022-08-07T06:43:38;20.00;98.10
17423;DHT22;8829;47.932;7.810;2022-08-07T06:46:08;20.00;98.50
17423;DHT22;8829;47.932;7.810;2022-08-07T06:48:35;20.50;97.70
17423;DHT22;8829;47.932;7.810;2022-08-07T06:51:04;20.40;97.60
17423;DHT22;8829;47.932;7.810;2022-08-07T06:53:34;20.40;98.00
17423;DHT22;8829;47.932;7.810;2022-08-07T06:56:03;20.40;97.80
17423;DHT22;8829;47.932;7.810;2022-08-07T06:58:31;20.30;97.40
17423;DHT22;8829;47.932;7.810;2022-08-07T07:00:59;20.70;97.50
17423;DHT22;8829;47.932;7.810;2022-08-07T07:03:29;20.60;97.80
17423;DHT22;8829;47.932;7.810;2022-08-07T07:05:56;21.20;97.10
17423;DHT22;8829;47.932;7.810;2022-08-07T07:08:24;22.00;97.10
17423;DHT22;8829;47.932;7.810;2022-08-07T07:10:52;22.70;95.20
17423;DHT22;8829;47.932;7.810;2022-08-07T07:13:25;22.00;94.80
17423;DHT22;8829;47.932;7.810;2022-08-07T07:15:57;21.90;95.00
17423;DHT22;8829;47.932;7.810;2022-08-07T07:18:35;21.90;94.70
17423;DHT22;8829;47.932;7.810;2022-08-07T07:21:09;21.30;95.80
17423;DHT22;8829;47.932;7.810;2022-08-07T07:23:37;21.00;96.40
17423;DHT22;8829;47.932;7.810;2022-08-07T07:26:08;21.20;96.10
17423;DHT22;8829;47.932;7.810;2022-08-07T07:28:40;20.80;96.30
17423;DHT22;8829;47.932;7.810;2022-08-07T07:31:13;20.60;96.40
17423;DHT22;8829;47.932;7.810;2022-08-07T07:33:44;20.20;97.20
17423;DHT22;8829;47.932;7.810;2022-08-07T07:36:12;20.00;98.20
17423;DHT22;8829;47.932;7.810;2022-08-07T07:38:40;20.20;98.00
17423;DHT22;8829;47.932;7.810;2022-08-07T07:41:08;20.20;98.10
17423;DHT22;8829;47.932;7.810;2022-08-07T07:43:41;20.50;98.10
17423;DHT22;8829;47.932;7.810;2022-08-07T07:46:09;20.80;97.80
17423;DHT22;8829;47.932;7.810;2022-08-07T07:48:36;21.00;97.40
17423;DHT22;8829;47.932;7.810;2022-08-07T07:51:07;21.10;96.90
17423;DHT22;8829;47.932;7.810;2022-08-07T07:53:37;21.00;96.70
17423;DHT22;8829;47.932;7.810;2022-08-07T07:56:07;20.80;97.30
17423;DHT22;8829;47.932;7.810;2022-08-07T07:58:35;21.10;97.00
17423;DHT22;8829;47.932;7.810;2022-08-07T08:01:03;21.70;96.50
17423;DHT22;8829;47.932;7.810;2022-08-07T08:03:33;21.80;96.50
17423;DHT22;8829;47.932;7.810;2022-08-07T08:06:01;22.00;95.90
17423;DHT22;8829;47.932;7.810;2022-08-07T08:08:32;22.10;96.30
17423;DHT22;8829;47.932;7.810;2022-08-07T08:11:00;22.80;94.40
17423;DHT22;8829;47.932;7.810;2022-08-07T08:13:29;24.00;93.50
17423;DHT22;8829;47.932;7.810;2022-08-07T08:15:57;24.40;92.40
17423;DHT22;8829;47.932;7.810;2022-08-07T08:18:28;24.40;91.80
17423;DHT22;8829;47.932;7.810;2022-08-07T08:20:56;24.10;92.10
17423;DHT22;8829;47.932;7.810;2022-08-07T08:23:27;23.90;92.30
17423;DHT22;8829;47.932;7.810;2022-08-07T08:26:15;23.60;93.10
17423;DHT22;8829;47.932;7.810;2022-08-07T08:29:00;23.10;92.80
17423;DHT22;8829;47.932;7.810;2022-08-07T08:31:30;23.30;92.90
17423;DHT22;8829;47.932;7.810;2022-08-07T08:34:02;24.40;91.90
17423;DHT22;8829;47.932;7.810;2022-08-07T08:36:31;24.60;91.20
17423;DHT22;8829;47.932;7.810;2022-08-07T08:39:00;24.10;92.20
17423;DHT22;8829;47.932;7.810;2022-08-07T08:41:37;24.30;91.30
17423;DHT22;8829;47.932;7.810;2022-08-07T08:44:09;24.00;91.90
17423;DHT22;8829;47.932;7.810;2022-08-07T08:46:45;23.70;92.20
17423;DHT22;8829;47.932;7.810;2022-08-07T08:49:19;23.60;91.80
17423;DHT22;8829;47.932;7.810;2022-08-07T08:51:54;23.50;92.30
17423;DHT22;8829;47.932;7.810;2022-08-07T08:54:27;24.10;92.00
17423;DHT22;8829;47.932;7.810;2022-08-07T08:56:59;23.70;92.00
17423;DHT22;8829;47.932;7.810;2022-08-07T08:59:32;23.30;92.70
17423;DHT22;8829;47.932;7.810;2022-08-07T09:02:08;23.10;92.80
17423;DHT22;8829;47.932;7.810;2022-08-07T09:04:43;23.00;93.10
17423;DHT22;8829;47.932;7.810;2022-08-07T09:07:17;23.00;93.10
17423;DHT22;8829;47.932;7.810;2022-08-07T09:09:54;22.80;93.20
17423;DHT22;8829;47.932;7.810;2022-08-07T09:12:36;22.90;93.30
17423;DHT22;8829;47.932;7.810;2022-08-07T09:15:17;22.90;93.50
17423;DHT22;8829;47.932;7.810;2022-08-07T09:17:52;23.10;93.30
17423;DHT22;8829;47.932;7.810;2022-08-07T09:20:29;23.50;92.90
17423;DHT22;8829;47.932;7.810;2022-08-07T09:23:06;23.10;93.10
17423;DHT22;8829;47.932;7.810;2022-08-07T09:25:43;23.50;93.20
17423;DHT22;8829;47.932;7.810;2022-08-07T09:28:23;23.30;92.90
17423;DHT22;8829;47.932;7.810;2022-08-07T09:30:59;23.30;92.90
17423;DHT22;8829;47.932;7.810;2022-08-07T09:33:53;23.40;93.40
17423;DHT22;8829;47.932;7.810;2022-08-07T09:36:28;23.30;93.10
17423;DHT22;8829;47.932;7.810;2022-08-07T09:39:02;23.40;93.70
17423;DHT22;8829;47.932;7.810;2022-08-07T09:41:35;23.70;93.00
17423;DHT22;8829;47.932;7.810;2022-08-07T09:44:12;23.70;92.90
17423;DHT22;8829;47.932;7.810;2022-08-07T09:46:50;23.70;92.70
17423;DHT22;8829;47.932;7.810;2022-08-07T09:49:32;23.90;92.80
17423;DHT22;8829;47.932;7.810;2022-08-07T09:52:15;23.40;92.90
17423;DHT22;8829;47.932;7.810;2022-08-07T09:54:48;23.10;93.50
17423;DHT22;8829;47.932;7.810;2022-08-07T10:00:26;23.10;93.80
17423;DHT22;8829;47.932;7.810;2022-08-07T10:09:13;23.30;93.20
17423;DHT22;8829;47.932;7.810;2022-08-07T10:11:59;23.30;93.50
17423;DHT22;8829;47.932;7.810;2022-08-07T10:14:44;23.30;93.70
17423;DHT22;8829;47.932;7.810;2022-08-07T10:17:33;23.30;93.80
17423;DHT22;8829;47.932;7.810;2022-08-07T10:20:14;23.50;93.60
17423;DHT22;8829;47.932;7.810;2022-08-07T10:22:56;23.50;93.60
17423;DHT22;8829;47.932;7.810;2022-08-07T10:25:37;23.50;93.70
17423;DHT22;8829;47.932;7.810;2022-08-07T10:28:30;23.70;94.20
17423;DHT22;8829;47.932;7.810;2022-08-07T10:31:09;24.00;93.00
17423;DHT22;8829;47.932;7.810;2022-08-07T10:33:56;24.20;93.00
17423;DHT22;8829;47.932;7.810;2022-08-07T10:36:34;24.50;92.90
17423;DHT22;8829;47.932;7.810;2022-08-07T10:39:08;24.80;92.60
17423;DHT22;8829;47.932;7.810;2022-08-07T10:41:41;25.00;92.40
17423;DHT22;8829;47.932;7.810;2022-08-07T10:44:15;24.90;91.60
17423;DHT22;8829;47.932;7.810;2022-08-07T10:46:51;25.00;91.80
17423;DHT22;8829;47.932;7.810;2022-08-07T10:49:25;25.10;91.70
17423;DHT22;8829;47.932;7.810;2022-08-07T10:52:01;25.10;91.50
17423;DHT22;8829;47.932;7.810;2022-08-07T10:54:36;25.10;91.40
17423;DHT22;8829;47.932;7.810;2022-08-07T10:57:10;25.10;91.40
17423;DHT22;8829;47.932;7.810;2022-08-07T11:00:02;25.20;91.20
17423;DHT22;8829;47.932;7.810;2022-08-07T11:02:34;25.40;91.10
17423;DHT22;8829;47.932;7.810;2022-08-07T11:05:18;25.40;90.70
17423;DHT22;8829;47.932;7.810;2022-08-07T11:07:53;25.40;91.20
17423;DHT22;8829;47.932;7.810;2022-08-07T11:10:27;25.40;90.40
17423;DHT22;8829;47.932;7.810;2022-08-07T11:12:59;25.30;91.00
17423;DHT22;8829;47.932;7.810;2022-08-07T11:15:33;25.40;90.80
17423;DHT22;8829;47.932;7.810;2022-08-07T11:18:05;25.50;91.00
17423;DHT22;8829;47.932;7.810;2022-08-07T11:20:40;25.70;90.90
17423;DHT22;8829;47.932;7.810;2022-08-07T11:23:16;25.70;89.90
17423;DHT22;8829;47.932;7.810;2022-08-07T11:25:49;25.60;90.10
17423;DHT22;8829;47.932;7.810;2022-08-07T11:28:22;25.50;90.50
17423;DHT22;8829;47.932;7.810;2022-08-07T11:30:55;25.60;90.40
17423;DHT22;8829;47.932;7.810;2022-08-07T11:33:28;25.80;90.20
17423;DHT22;8829;47.932;7.810;2022-08-07T11:36:10;26.00;90.20
17423;DHT22;8829;47.932;7.810;2022-08-07T11:38:45;26.10;89.00
17423;DHT22;8829;47.932;7.810;2022-08-07T11:41:20;26.00;89.70
17423;DHT22;8829;47.932;7.810;2022-08-07T11:43:54;26.10;88.70
17423;DHT22;8829;47.932;7.810;2022-08-07T11:46:47;26.20;88.60
17423;DHT22;8829;47.932;7.810;2022-08-07T11:52:51;26.30;88.40
17423;DHT22;8829;47.932;7.810;2022-08-07T11:55:29;26.30;87.30
17423;DHT22;8829;47.932;7.810;2022-08-07T11:58:04;26.20;87.80
17423;DHT22;8829;47.932;7.810;2022-08-07T12:00:44;26.40;87.50
17423;DHT22;8829;47.932;7.810;2022-08-07T12:03:43;26.70;87.60
17423;DHT22;8829;47.932;7.810;2022-08-07T12:06:27;26.90;86.20
17423;DHT22;8829;47.932;7.810;2022-08-07T12:09:11;27.00;85.60
17423;DHT22;8829;47.932;7.810;2022-08-07T12:11:57;26.80;86.20
17423;DHT22;8829;47.932;7.810;2022-08-07T12:14:29;26.80;86.10
17423;DHT22;8829;47.932;7.810;2022-08-07T12:17:01;26.80;86.50
17423;DHT22;8829;47.932;7.810;2022-08-07T12:19:35;26.70;86.00
17423;DHT22;8829;47.932;7.810;2022-08-07T12:22:07;26.80;86.90
17423;DHT22;8829;47.932;7.810;2022-08-07T12:24:44;26.90;86.80
17423;DHT22;8829;47.932;7.810;2022-08-07T12:27:28;27.00;84.80
17423;DHT22;8829;47.932;7.810;2022-08-07T12:30:02;27.00;84.70
17423;DHT22;8829;47.932;7.810;2022-08-07T12:32:35;27.00;85.30
17423;DHT22;8829;47.932;7.810;2022-08-07T12:35:07;27.00;85.40
17423;DHT22;8829;47.932;7.810;2022-08-07T12:37:36;27.00;84.60
17423;DHT22;8829;47.932;7.810;2022-08-07T12:40:07;26.80;85.60
17423;DHT22;8829;47.932;7.810;2022-08-07T12:42:36;26.70;86.00
17423;DHT22;8829;47.932;7.810;2022-08-07T12:45:07;26.80;85.70
17423;DHT22;8829;47.932;7.810;2022-08-07T12:47:41;26.80;85.60
17423;DHT22;8829;47.932;7.810;2022-08-07T12:50:15;26.90;85.50
17423;DHT22;8829;47.932;7.810;2022-08-07T12:52:49;26.90;86.30
17423;DHT22;8829;47.932;7.810;2022-08-07T12:55:22;26.80;85.10
17423;DHT22;8829;47.932;7.810;2022-08-07T12:57:51;26.60;85.60
17423;DHT22;8829;47.932;7.810;2022-08-07T13:00:21;26.60;86.40
17423;DHT22;8829;47.932;7.810;2022-08-07T13:03:09;26.50;87.40
17423;DHT22;8829;47.932;7.810;2022-08-07T13:05:54;26.70;87.40
17423;DHT22;8829;47.932;7.810;2022-08-07T13:08:34;26.90;86.40
17423;DHT22;8829;47.932;7.810;2022-08-07T13:11:24;27.20;83.90
17423;DHT22;8829;47.932;7.810;2022-08-07T13:14:00;27.20;83.50
17423;DHT22;8829;47.932;7.810;2022-08-07T13:16:33;27.10;84.40
17423;DHT22;8829;47.932;7.810;2022-08-07T13:19:14;26.90;84.20
17423;DHT22;8829;47.932;7.810;2022-08-07T13:21:47;26.80;84.80
17423;DHT22;8829;47.932;7.810;2022-08-07T13:24:20;26.80;84.70
17423;DHT22;8829;47.932;7.810;2022-08-07T13:26:56;26.80;84.70
17423;DHT22;8829;47.932;7.810;2022-08-07T13:29:31;26.60;84.50
17423;DHT22;8829;47.932;7.810;2022-08-07T13:32:02;26.50;86.10
17423;DHT22;8829;47.932;7.810;2022-08-07T13:34:36;26.50;84.90
17423;DHT22;8829;47.932;7.810;2022-08-07T13:37:09;26.70;85.60
17423;DHT22;8829;47.932;7.810;2022-08-07T13:39:49;27.00;84.60
17423;DHT22;8829;47.932;7.810;2022-08-07T13:42:24;27.30;83.30
17423;DHT22;8829;47.932;7.810;2022-08-07T13:44:52;27.50;82.90
17423;DHT22;8829;47.932;7.810;2022-08-07T13:47:21;27.60;83.20
17423;DHT22;8829;47.932;7.810;2022-08-07T13:49:54;27.70;81.70
17423;DHT22;8829;47.932;7.810;2022-08-07T13:52:24;27.50;83.10
17423;DHT22;8829;47.932;7.810;2022-08-07T13:54:54;27.30;83.90
17423;DHT22;8829;47.932;7.810;2022-08-07T13:57:26;27.30;84.10
17423;DHT22;8829;47.932;7.810;2022-08-07T13:59:54;27.50;82.70
17423;DHT22;8829;47.932;7.810;2022-08-07T14:02:26;27.40;83.00
17423;DHT22;8829;47.932;7.810;2022-08-07T14:04:56;27.40;82.80
17423;DHT22;8829;47.932;7.810;2022-08-07T14:07:33;27.40;82.50
17423;DHT22;8829;47.932;7.810;2022-08-07T14:10:04;27.40;82.70
17423;DHT22;8829;47.932;7.810;2022-08-07T14:12:37;27.10;83.20
17423;DHT22;8829;47.932;7.810;2022-08-07T14:15:18;27.00;82.40
17423;DHT22;8829;47.932;7.810;2022-08-07T14:17:46;26.90;83.10
17423;DHT22;8829;47.932;7.810;2022-08-07T14:20:18;27.20;82.40
17423;DHT22;8829;47.932;7.810;2022-08-07T14:22:50;27.40;83.00
17423;DHT22;8829;47.932;7.810;2022-08-07T14:25:23;27.60;82.10
17423;DHT22;8829;47.932;7.810;2022-08-07T14:27:54;27.80;79.90
17423;DHT22;8829;47.932;7.810;2022-08-07T14:30:23;27.70;79.30
17423;DHT22;8829;47.932;7.810;2022-08-07T14:32:54;27.60;80.20
17423;DHT22;8829;47.932;7.810;2022-08-07T14:35:23;27.60;79.20
17423;DHT22;8829;47.932;7.810;2022-08-07T14:37:51;27.50;78.20
17423;DHT22;8829;47.932;7.810;2022-08-07T14:40:21;27.40;78.20
17423;DHT22;8829;47.932;7.810;2022-08-07T14:42:54;27.40;78.10
17423;DHT22;8829;47.932;7.810;2022-08-07T14:45:24;27.30;78.70
17423;DHT22;8829;47.932;7.810;2022-08-07T14:47:53;27.30;78.10
17423;DHT22;8829;47.932;7.810;2022-08-07T14:50:21;27.20;77.10
17423;DHT22;8829;47.932;7.810;2022-08-07T14:52:51;27.10;77.80
17423;DHT22;8829;47.932;7.810;2022-08-07T14:55:21;27.20;77.40
17423;DHT22;8829;47.932;7.810;2022-08-07T14:57:50;27.20;77.40
17423;DHT22;8829;47.932;7.810;2022-08-07T15:00:24;27.40;79.20
17423;DHT22;8829;47.932;7.810;2022-08-07T15:02:53;27.50;76.90
17423;DHT22;8829;47.932;7.810;2022-08-07T15:05:22;27.50;76.40
17423;DHT22;8829;47.932;7.810;2022-08-07T15:07:50;27.50;76.60
17423;DHT22;8829;47.932;7.810;2022-08-07T15:10:19;27.40;76.60
17423;DHT22;8829;47.932;7.810;2022-08-07T15:12:48;27.50;76.60
17423;DHT22;8829;47.932;7.810;2022-08-07T15:15:24;27.50;75.80
17423;DHT22;8829;47.932;7.810;2022-08-07T15:17:58;27.60;75.20
17423;DHT22;8829;47.932;7.810;2022-08-07T15:20:30;27.70;75.50
17423;DHT22;8829;47.932;7.810;2022-08-07T15:23:02;27.80;75.30
17423;DHT22;8829;47.932;7.810;2022-08-07T15:25:32;27.70;75.00
17423;DHT22;8829;47.932;7.810;2022-08-07T15:28:02;27.70;74.20
17423;DHT22;8829;47.932;7.810;2022-08-07T15:30:33;27.70;74.50
17423;DHT22;8829;47.932;7.810;2022-08-07T15:33:02;27.70;74.30
17423;DHT22;8829;47.932;7.810;2022-08-07T15:35:31;27.60;75.10
17423;DHT22;8829;47.932;7.810;2022-08-07T15:38:00;27.70;73.50
17423;DHT22;8829;47.932;7.810;2022-08-07T15:40:29;27.50;73.40
17423;DHT22;8829;47.932;7.810;2022-08-07T15:43:03;27.50;73.30
17423;DHT22;8829;47.932;7.810;2022-08-07T15:45:35;27.60;73.80
17423;DHT22;8829;47.932;7.810;2022-08-07T15:48:11;27.60;73.00
17423;DHT22;8829;47.932;7.810;2022-08-07T15:50:41;27.60;72.60
17423;DHT22;8829;47.932;7.810;2022-08-07T15:53:10;27.50;72.10
17423;DHT22;8829;47.932;7.810;2022-08-07T15:55:41;27.40;72.20
17423;DHT22;8829;47.932;7.810;2022-08-07T15:58:10;27.30;72.30
17423;DHT22;8829;47.932;7.810;2022-08-07T16:00:41;27.20;72.40
17423;DHT22;8829;47.932;7.810;2022-08-07T16:03:13;27.30;72.20
17423;DHT22;8829;47.932;7.810;2022-08-07T16:05:44;27.30;71.70
17423;DHT22;8829;47.932;7.810;2022-08-07T16:08:15;27.30;72.50
17423;DHT22;8829;47.932;7.810;2022-08-07T16:10:47;27.40;71.70
17423;DHT22;8829;47.932;7.810;2022-08-07T16:13:53;27.40;71.90
17423;DHT22;8829;47.932;7.810;2022-08-07T16:16:37;27.40;70.50
17423;DHT22;8829;47.932;7.810;2022-08-07T16:19:25;27.30;71.00
17423;DHT22;8829;47.932;7.810;2022-08-07T16:22:03;27.10;70.30
17423;DHT22;8829;47.932;7.810;2022-08-07T16:24:33;26.90;70.70
17423;DHT22;8829;47.932;7.810;2022-08-07T16:27:11;26.90;70.50